aviador You're here:

YABA Decoded Metar

in
Report Time2018-02-25 15:00:00
UTC Time2018-02-25 15:08:12
Flight Rules vfr VFR
Wind280° at 09 kt
W.Decomp.*RWY 32: 6.9 kt HW 5.8 kt LCW
RWY 23: 5.8 kt HW 6.9 kt RCW
W.Rank280° ranks 19
Current wind is below 280° avg. (9.2)
Visibility9999 m
Phenomena:N/A
Clouds:N/A
Expected CloudBase > 400 ft AGL from Temp-Dew spread
CeilingNone
Temp19°C
Dew Point18°C (94% RH)
AAT18.6°C
QNH1006 hPa
Raw Report
METAR YABA 251500Z AUTO 28009KT 9999 // NCD 19/18 Q1006=

Extra information for YABA:More info

Social comments